createdAt,value
2018-03-20T00:00:48.954Z,16.13
2018-03-20T00:03:16.513Z,14.77
2018-03-20T00:05:44.073Z,13.90
2018-03-20T00:08:11.644Z,14.50
2018-03-20T00:10:39.265Z,12.30
2018-03-20T00:13:06.910Z,14.13
2018-03-20T00:15:34.657Z,13.93
2018-03-20T00:18:02.473Z,12.63
2018-03-20T00:20:30.042Z,13.17
2018-03-20T00:22:57.670Z,12.57
2018-03-20T00:25:25.221Z,12.50
2018-03-20T00:27:53.045Z,13.33
2018-03-20T00:30:20.950Z,11.47
2018-03-20T00:32:48.581Z,10.23
2018-03-20T00:35:16.400Z,11.10
2018-03-20T00:37:44.110Z,11.70
2018-03-20T00:40:11.731Z,11.93
2018-03-20T00:42:39.431Z,11.97
2018-03-20T00:45:06.991Z,10.93
2018-03-20T00:47:34.554Z,10.63
2018-03-20T00:50:02.304Z,9.90
2018-03-20T00:52:29.890Z,9.93
2018-03-20T00:54:57.452Z,9.20
2018-03-20T00:57:25.263Z,8.47
2018-03-20T00:59:52.814Z,9.53
2018-03-20T01:02:20.699Z,8.70
2018-03-20T01:04:48.251Z,9.43
2018-03-20T01:07:15.810Z,8.60
2018-03-20T01:09:43.463Z,8.53
2018-03-20T01:12:11.083Z,8.17
2018-03-20T01:14:38.888Z,9.13
2018-03-20T01:17:06.445Z,8.00
2018-03-20T01:19:34.005Z,9.23
2018-03-20T01:22:01.743Z,13.03
2018-03-20T01:24:29.357Z,9.23
2018-03-20T01:26:56.969Z,9.27
2018-03-20T01:29:24.525Z,9.03
2018-03-20T01:31:52.279Z,8.20
2018-03-20T01:34:19.826Z,8.43
2018-03-20T01:36:47.634Z,9.10
2018-03-20T01:39:15.203Z,9.10
2018-03-20T01:41:42.778Z,10.07
2018-03-20T01:44:10.492Z,10.10
2018-03-20T01:46:38.117Z,9.33
2018-03-20T01:49:05.707Z,12.80
2018-03-20T01:51:33.270Z,13.03
2018-03-20T01:54:00.838Z,12.23
2018-03-20T01:56:28.394Z,14.83
2018-03-20T01:58:56.210Z,13.70
2018-03-20T02:01:23.765Z,13.00
2018-03-20T02:03:51.326Z,11.33
2018-03-20T02:06:19.030Z,11.67
2018-03-20T02:08:46.649Z,10.10
2018-03-20T02:11:14.202Z,9.57
2018-03-20T02:13:41.774Z,9.70
2018-03-20T02:16:09.339Z,8.90
2018-03-20T02:18:36.902Z,9.07
2018-03-20T02:21:04.672Z,9.23
2018-03-20T02:23:32.221Z,9.07
2018-03-20T02:25:59.786Z,8.47
2018-03-20T02:28:27.343Z,14.13
2018-03-20T02:30:54.966Z,10.47
2018-03-20T02:33:22.526Z,10.07
2018-03-20T02:35:50.089Z,8.90
2018-03-20T02:38:17.663Z,8.33
2018-03-20T02:40:45.290Z,8.13
2018-03-20T02:43:12.863Z,27.73
2018-03-20T02:45:40.649Z,23.07
2018-03-20T02:48:08.263Z,18.93
2018-03-20T02:50:35.833Z,22.30
2018-03-20T02:53:03.411Z,15.07
2018-03-20T02:55:30.986Z,10.50
2018-03-20T02:57:58.715Z,9.33
2018-03-20T03:00:26.458Z,10.07
2018-03-20T03:02:54.045Z,11.50
2018-03-20T03:05:21.889Z,10.70
2018-03-20T03:07:49.502Z,9.67
2018-03-20T03:10:17.229Z,10.27
2018-03-20T03:12:45.047Z,12.97
2018-03-20T03:15:12.678Z,9.90
2018-03-20T03:17:40.255Z,13.07
2018-03-20T03:20:08.002Z,12.77
2018-03-20T03:22:35.612Z,14.05
2018-03-20T03:25:03.234Z,13.33
2018-03-20T03:27:31.007Z,10.90
2018-03-20T03:29:58.566Z,10.30
2018-03-20T03:32:26.142Z,11.50
2018-03-20T03:34:53.720Z,22.53
2018-03-20T03:37:21.275Z,10.43
2018-03-20T03:39:48.857Z,11.03
2018-03-20T03:42:16.409Z,9.97
2018-03-20T03:44:43.984Z,9.67
2018-03-20T03:47:11.799Z,13.63
2018-03-20T03:49:39.616Z,15.97
2018-03-20T03:52:07.436Z,10.00
2018-03-20T03:54:35.254Z,9.27
2018-03-20T03:57:02.833Z,12.90
2018-03-20T03:59:30.589Z,12.73
2018-03-20T04:01:58.150Z,8.60
2018-03-20T04:04:25.825Z,9.65
2018-03-20T04:06:53.398Z,9.60
2018-03-20T04:09:21.162Z,9.50
2018-03-20T04:11:48.807Z,9.50
2018-03-20T04:14:16.370Z,9.97
2018-03-20T04:16:44.217Z,8.80
2018-03-20T04:19:11.786Z,10.93
2018-03-20T04:21:39.346Z,8.67
2018-03-20T04:24:06.919Z,8.63
2018-03-20T04:26:34.474Z,8.90
2018-03-20T04:29:02.183Z,9.23
2018-03-20T04:31:29.738Z,9.57
2018-03-20T04:33:57.367Z,10.00
2018-03-20T04:36:25.160Z,8.17
2018-03-20T04:38:52.977Z,9.67
2018-03-20T04:41:20.573Z,11.67
2018-03-20T04:43:48.315Z,9.57
2018-03-20T04:46:15.882Z,9.47
2018-03-20T04:48:43.438Z,9.60
2018-03-20T04:51:11.038Z,7.80
2018-03-20T04:53:38.618Z,8.55
2018-03-20T04:56:06.198Z,7.37
2018-03-20T04:58:34.023Z,8.10
2018-03-20T05:01:01.593Z,8.27
2018-03-20T05:03:29.168Z,7.97
2018-03-20T05:05:56.731Z,8.85
2018-03-20T05:08:24.310Z,7.50
2018-03-20T05:10:51.897Z,8.83
2018-03-20T05:13:19.534Z,12.80
2018-03-20T05:15:47.147Z,11.77
2018-03-20T05:18:14.964Z,9.30
2018-03-20T05:20:48.064Z,10.73
2018-03-20T05:26:20.358Z,8.85
2018-03-20T05:28:47.961Z,10.80
2018-03-20T05:31:15.796Z,16.40
2018-03-20T05:33:43.734Z,17.57
2018-03-20T05:36:11.349Z,11.33
2018-03-20T05:38:39.158Z,7.83
2018-03-20T05:41:06.821Z,8.20
2018-03-20T05:43:34.414Z,8.63
2018-03-20T05:46:02.215Z,8.33
2018-03-20T05:48:30.263Z,7.63
2018-03-20T05:51:03.413Z,8.63
2018-03-20T05:53:30.999Z,13.13
2018-03-20T05:55:58.603Z,14.67
2018-03-20T05:58:26.214Z,8.87
2018-03-20T06:00:53.810Z,8.73
2018-03-20T06:03:21.537Z,9.13
2018-03-20T06:05:49.098Z,16.97
2018-03-20T06:08:16.722Z,12.40
2018-03-20T06:10:44.301Z,17.23
2018-03-20T06:13:11.862Z,19.93
2018-03-20T06:15:39.532Z,10.53
2018-03-20T06:18:07.086Z,15.50
2018-03-20T06:20:34.886Z,47.17
2018-03-20T06:23:02.445Z,15.80
2018-03-20T06:25:30.071Z,9.73
2018-03-20T06:27:57.690Z,29.60
2018-03-20T06:30:25.272Z,17.37
2018-03-20T06:32:53.074Z,19.87
2018-03-20T06:35:20.717Z,20.67
2018-03-20T06:37:48.292Z,37.73
2018-03-20T06:40:16.028Z,12.87
2018-03-20T06:42:43.654Z,13.47
2018-03-20T06:45:11.215Z,16.73
2018-03-20T06:47:38.951Z,18.30
2018-03-20T06:50:06.666Z,19.13
2018-03-20T06:52:34.308Z,11.40
2018-03-20T06:55:01.890Z,14.00
2018-03-20T06:57:29.545Z,14.63
2018-03-20T06:59:57.166Z,17.70
2018-03-20T07:02:24.727Z,11.97
2018-03-20T07:04:52.289Z,13.60
2018-03-20T07:07:19.860Z,14.13
2018-03-20T07:09:47.643Z,14.53
2018-03-20T07:12:15.252Z,13.50
2018-03-20T07:14:42.828Z,15.97
2018-03-20T07:17:10.399Z,14.00
2018-03-20T07:19:38.007Z,13.53
2018-03-20T07:22:05.640Z,16.13
2018-03-20T07:24:33.227Z,12.17
2018-03-20T07:27:00.958Z,15.17
2018-03-20T07:29:28.773Z,18.57
2018-03-20T07:31:56.505Z,39.90
2018-03-20T07:34:24.114Z,36.87
2018-03-20T07:36:51.841Z,18.87
2018-03-20T07:39:19.474Z,18.70
2018-03-20T07:41:47.278Z,14.93
2018-03-20T07:44:14.910Z,16.90
2018-03-20T07:46:42.628Z,13.53
2018-03-20T07:49:10.222Z,35.17
2018-03-20T07:51:37.794Z,24.33
2018-03-20T07:54:05.534Z,18.77
2018-03-20T07:56:33.388Z,14.80
2018-03-20T07:59:00.957Z,11.90
2018-03-20T08:01:28.685Z,19.13
2018-03-20T08:03:56.454Z,30.20
2018-03-20T08:06:24.010Z,17.23
2018-03-20T08:08:51.578Z,14.70
2018-03-20T08:11:19.397Z,16.63
2018-03-20T08:13:47.217Z,15.67
2018-03-20T08:16:14.780Z,14.53
2018-03-20T08:18:42.346Z,15.17
2018-03-20T08:21:09.951Z,21.50
2018-03-20T08:23:37.505Z,13.93
2018-03-20T08:26:05.083Z,13.13
2018-03-20T08:28:32.650Z,15.73
2018-03-20T08:31:00.222Z,16.83
2018-03-20T08:33:27.955Z,13.33
2018-03-20T08:35:55.567Z,13.80
2018-03-20T08:38:23.123Z,14.20
2018-03-20T08:40:50.908Z,15.93
2018-03-20T08:43:18.476Z,15.40
2018-03-20T08:45:46.245Z,76.77
2018-03-20T08:48:14.079Z,19.27
2018-03-20T08:50:41.715Z,59.47
2018-03-20T08:53:09.374Z,45.73
2018-03-20T08:55:37.055Z,100.80
2018-03-20T08:58:04.665Z,13.53
2018-03-20T09:00:32.304Z,42.07
2018-03-20T09:02:59.870Z,21.37
2018-03-20T09:05:27.548Z,20.30
2018-03-20T09:07:55.106Z,9.33
2018-03-20T09:10:23.731Z,9.37
2018-03-20T09:12:51.289Z,26.23
2018-03-20T09:15:18.858Z,10.97
2018-03-20T09:17:46.684Z,13.57
2018-03-20T09:20:14.503Z,17.60
2018-03-20T09:22:42.082Z,15.80
2018-03-20T09:25:10.129Z,11.53
2018-03-20T09:27:37.967Z,38.77
2018-03-20T09:30:05.575Z,37.10
2018-03-20T09:32:33.380Z,28.27
2018-03-20T09:35:01.072Z,36.03
2018-03-20T09:37:28.665Z,16.47
2018-03-20T09:39:56.388Z,18.40
2018-03-20T09:42:24.090Z,20.97
2018-03-20T09:44:51.768Z,17.27
2018-03-20T09:47:19.475Z,33.10
2018-03-20T09:49:47.192Z,10.60
2018-03-20T09:52:14.823Z,90.30
2018-03-20T09:54:42.458Z,13.10
2018-03-20T09:57:10.018Z,22.83
2018-03-20T09:59:37.578Z,16.67
2018-03-20T10:02:05.396Z,11.50
2018-03-20T10:04:32.974Z,21.73
2018-03-20T10:07:00.542Z,21.63
2018-03-20T10:09:28.098Z,33.97
2018-03-20T10:11:55.714Z,21.17
2018-03-20T10:14:23.279Z,16.83
2018-03-20T10:16:51.018Z,15.70
2018-03-20T10:19:18.811Z,14.57
2018-03-20T10:21:46.374Z,15.77
2018-03-20T10:24:13.950Z,13.20
2018-03-20T10:26:41.518Z,23.60
2018-03-20T10:29:09.154Z,17.47
2018-03-20T10:31:36.819Z,14.60
2018-03-20T10:34:04.382Z,13.70
2018-03-20T10:36:32.051Z,11.90
2018-03-20T10:38:59.690Z,12.10
2018-03-20T10:41:27.499Z,26.67
2018-03-20T10:43:55.058Z,14.53
2018-03-20T10:46:22.831Z,27.67
2018-03-20T10:48:50.390Z,15.47
2018-03-20T10:51:17.966Z,11.93
2018-03-20T10:53:45.530Z,13.07
2018-03-20T10:56:13.088Z,21.17
2018-03-20T10:58:40.663Z,16.53
2018-03-20T11:01:08.262Z,14.23
2018-03-20T11:03:35.827Z,52.03
2018-03-20T11:06:03.404Z,16.03
2018-03-20T11:08:31.082Z,13.20
2018-03-20T11:10:58.775Z,12.30
2018-03-20T11:13:26.498Z,13.77
2018-03-20T11:15:54.207Z,23.30
2018-03-20T11:18:21.842Z,17.77
2018-03-20T11:20:49.585Z,15.00
2018-03-20T11:23:17.141Z,12.23
2018-03-20T11:25:44.768Z,13.70
2018-03-20T11:28:12.537Z,16.53
2018-03-20T11:30:40.094Z,19.10
2018-03-20T11:33:07.662Z,16.97
2018-03-20T11:35:35.523Z,11.93
2018-03-20T11:38:03.101Z,17.43
2018-03-20T11:40:30.842Z,11.53
2018-03-20T11:42:58.645Z,22.80
2018-03-20T11:45:26.213Z,33.13
2018-03-20T11:47:54.044Z,16.13
2018-03-20T11:50:21.760Z,14.20
2018-03-20T11:52:49.347Z,24.10
2018-03-20T11:55:17.135Z,15.63
2018-03-20T11:57:44.956Z,13.80
2018-03-20T12:00:12.773Z,15.33
2018-03-20T12:02:40.821Z,15.30
2018-03-20T12:05:08.390Z,10.70
2018-03-20T12:07:36.015Z,9.10
2018-03-20T12:10:03.817Z,9.30
2018-03-20T12:12:31.669Z,11.17
2018-03-20T12:14:59.294Z,10.73
2018-03-20T12:17:26.893Z,8.83
2018-03-20T12:19:54.733Z,13.50
2018-03-20T12:22:22.323Z,32.23
2018-03-20T12:24:49.894Z,19.20
2018-03-20T12:27:17.474Z,10.93
2018-03-20T12:29:45.025Z,8.10
2018-03-20T12:32:12.808Z,8.87
2018-03-20T12:34:40.384Z,14.67
2018-03-20T12:37:07.947Z,41.17
2018-03-20T12:39:35.762Z,16.67
2018-03-20T12:42:03.373Z,203.33
2018-03-20T12:44:31.090Z,8.70
2018-03-20T12:46:58.655Z,9.47
2018-03-20T12:49:26.236Z,10.40
2018-03-20T12:51:53.844Z,11.50
2018-03-20T12:54:21.562Z,14.37
2018-03-20T12:56:49.388Z,11.07
2018-03-20T12:59:16.960Z,13.17
2018-03-20T13:01:44.535Z,19.47
2018-03-20T13:04:12.098Z,44.63
2018-03-20T13:06:39.860Z,11.63
2018-03-20T13:09:07.662Z,13.90
2018-03-20T13:11:35.397Z,18.70
2018-03-20T13:14:03.094Z,14.30
2018-03-20T13:16:30.714Z,10.50
2018-03-20T13:18:58.342Z,11.97
2018-03-20T13:21:26.169Z,12.07
2018-03-20T13:23:53.763Z,11.20
2018-03-20T13:26:21.396Z,15.80
2018-03-20T13:28:49.225Z,13.63
2018-03-20T13:31:17.042Z,16.83
2018-03-20T13:33:44.622Z,29.57
2018-03-20T13:36:12.187Z,26.33
2018-03-20T13:38:39.814Z,13.73
2018-03-20T13:41:07.615Z,14.70
2018-03-20T13:43:35.239Z,27.90
2018-03-20T13:46:03.050Z,28.57
2018-03-20T13:48:30.622Z,19.70
2018-03-20T13:50:58.680Z,14.60
2018-03-20T13:53:28.305Z,12.73
2018-03-20T13:55:56.131Z,34.47
2018-03-20T13:58:23.949Z,38.53
2018-03-20T14:00:51.583Z,25.37
2018-03-20T14:03:19.174Z,20.67
2018-03-20T14:05:46.745Z,15.60
2018-03-20T14:08:14.348Z,49.40
2018-03-20T14:10:42.018Z,19.10
2018-03-20T14:13:09.599Z,28.43
2018-03-20T14:15:37.174Z,49.13
2018-03-20T14:18:04.789Z,40.23
2018-03-20T14:20:32.359Z,49.30
2018-03-20T14:23:00.128Z,15.47
2018-03-20T14:25:27.722Z,31.83
2018-03-20T14:27:55.513Z,22.27
2018-03-20T14:30:23.324Z,14.50
2018-03-20T14:32:51.042Z,29.00
2018-03-20T14:35:18.618Z,12.50
2018-03-20T14:37:46.378Z,13.20
2018-03-20T14:40:14.197Z,13.27
2018-03-20T14:42:41.782Z,15.90
2018-03-20T14:45:09.534Z,10.27
2018-03-20T14:47:37.119Z,14.57
2018-03-20T14:50:04.764Z,13.43
2018-03-20T14:52:32.354Z,17.13
2018-03-20T14:54:59.979Z,18.30
2018-03-20T14:57:27.724Z,23.90
2018-03-20T14:59:55.432Z,12.77
2018-03-20T15:02:23.020Z,14.57
2018-03-20T15:04:50.757Z,18.37
2018-03-20T15:07:18.356Z,23.23
2018-03-20T15:09:45.941Z,16.60
2018-03-20T15:12:13.622Z,10.47
2018-03-20T15:14:41.449Z,9.93
2018-03-20T15:17:09.267Z,10.00
2018-03-20T15:19:36.835Z,13.90
2018-03-20T15:22:04.483Z,402.33
2018-03-20T15:24:32.064Z,12.60
2018-03-20T15:26:59.839Z,24.07
2018-03-20T15:29:27.422Z,20.87
2018-03-20T15:31:54.977Z,14.50
2018-03-20T15:34:22.542Z,14.50
2018-03-20T15:36:50.108Z,16.40
2018-03-20T15:39:17.723Z,12.67
2018-03-20T15:41:45.321Z,12.30
2018-03-20T15:44:13.046Z,13.47
2018-03-20T15:46:40.674Z,19.83
2018-03-20T15:49:08.341Z,35.67
2018-03-20T15:51:35.903Z,26.30
2018-03-20T15:54:03.478Z,18.70
2018-03-20T15:56:31.039Z,20.60
2018-03-20T15:58:58.602Z,21.63
2018-03-20T16:01:26.177Z,27.53
2018-03-20T16:03:53.767Z,47.20
2018-03-20T16:06:21.495Z,78.73
2018-03-20T16:08:49.070Z,154.47
2018-03-20T16:11:16.863Z,99.90
2018-03-20T16:13:44.430Z,95.87
2018-03-20T16:16:11.993Z,62.53
2018-03-20T16:18:39.568Z,47.67
2018-03-20T16:21:07.316Z,87.03
2018-03-20T16:23:34.890Z,98.50
2018-03-20T16:26:02.457Z,111.60
2018-03-20T16:28:30.085Z,291.23
2018-03-20T16:30:57.651Z,67.93
2018-03-20T16:33:25.521Z,122.10
2018-03-20T16:35:53.205Z,54.90
2018-03-20T16:38:20.784Z,84.40
2018-03-20T16:40:48.567Z,140.93
2018-03-20T16:43:16.296Z,111.67
2018-03-20T16:45:44.132Z,92.57
2018-03-20T16:48:11.931Z,99.37
2018-03-20T16:50:39.498Z,97.90
2018-03-20T16:53:07.268Z,93.53
2018-03-20T16:55:34.840Z,68.77
2018-03-20T16:58:02.605Z,112.70
2018-03-20T17:00:30.208Z,80.60
2018-03-20T17:02:57.812Z,116.70
2018-03-20T17:05:25.401Z,130.13
2018-03-20T17:07:52.989Z,117.67
2018-03-20T17:10:20.794Z,120.77
2018-03-20T17:12:48.370Z,114.77
2018-03-20T17:15:16.033Z,91.37
2018-03-20T17:17:43.690Z,109.50
2018-03-20T17:20:11.267Z,109.60
2018-03-20T17:22:38.855Z,269.40
2018-03-20T17:25:06.702Z,353.57
2018-03-20T17:27:34.572Z,381.70
2018-03-20T17:30:02.157Z,206.80
2018-03-20T17:32:29.744Z,238.70
2018-03-20T17:34:57.365Z,158.97
2018-03-20T17:37:25.193Z,101.33
2018-03-20T17:39:53.025Z,70.97
2018-03-20T17:42:20.631Z,70.50
2018-03-20T17:44:48.442Z,69.53
2018-03-20T17:47:16.467Z,65.33
2018-03-20T17:49:44.291Z,96.20
2018-03-20T17:52:11.870Z,132.47
2018-03-20T17:54:39.446Z,127.60
2018-03-20T17:57:07.240Z,158.70
2018-03-20T17:59:34.838Z,147.17
2018-03-20T18:02:02.511Z,162.93
2018-03-20T18:04:30.209Z,115.37
2018-03-20T18:06:58.011Z,112.03
2018-03-20T18:09:25.831Z,127.27
2018-03-20T18:11:53.434Z,137.33
2018-03-20T18:14:21.254Z,122.23
2018-03-20T18:16:48.827Z,129.60
2018-03-20T18:19:16.506Z,127.50
2018-03-20T18:21:44.321Z,149.50
2018-03-20T18:24:11.978Z,145.40
2018-03-20T18:26:39.759Z,132.73
2018-03-20T18:29:07.566Z,123.87
2018-03-20T18:31:35.386Z,118.70
2018-03-20T18:34:03.008Z,99.60
2018-03-20T18:36:30.885Z,108.53
2018-03-20T18:38:58.488Z,186.20
2018-03-20T18:41:26.369Z,211.77
2018-03-20T18:43:54.186Z,156.47
2018-03-20T18:46:21.996Z,137.87
2018-03-20T18:48:49.577Z,152.67
2018-03-20T18:51:17.296Z,178.73
2018-03-20T18:53:45.161Z,175.50
2018-03-20T18:56:12.723Z,163.27
2018-03-20T18:58:40.495Z,161.60
2018-03-20T19:01:08.586Z,158.87
2018-03-20T19:03:36.173Z,140.87
2018-03-20T19:06:03.850Z,138.63
2018-03-20T19:08:31.491Z,129.30
2018-03-20T19:10:59.062Z,130.17
2018-03-20T19:13:26.630Z,132.57
2018-03-20T19:15:54.219Z,117.07
2018-03-20T19:18:22.042Z,128.47
2018-03-20T19:20:49.623Z,221.90
2018-03-20T19:23:17.195Z,125.23
2018-03-20T19:25:44.818Z,115.53
2018-03-20T19:28:12.598Z,109.93
2018-03-20T19:30:40.314Z,121.40
2018-03-20T19:33:07.904Z,124.57
2018-03-20T19:35:35.481Z,62.60
2018-03-20T19:38:03.284Z,100.90
2018-03-20T19:40:30.852Z,106.03
2018-03-20T19:42:58.495Z,94.27
2018-03-20T19:45:26.238Z,87.23
2018-03-20T19:47:53.853Z,144.07
2018-03-20T19:50:21.464Z,129.33
2018-03-20T19:52:49.159Z,180.40
2018-03-20T19:55:16.888Z,135.63
2018-03-20T19:57:44.716Z,88.87
2018-03-20T20:00:12.547Z,74.93
2018-03-20T20:02:40.372Z,62.47
2018-03-20T20:05:07.950Z,56.17
2018-03-20T20:07:35.681Z,58.20
2018-03-20T20:10:03.286Z,56.83
2018-03-20T20:12:30.859Z,56.80
2018-03-20T20:14:58.440Z,69.90
2018-03-20T20:17:26.251Z,83.43
2018-03-20T20:19:53.963Z,81.80
2018-03-20T20:22:21.678Z,59.80
2018-03-20T20:24:49.318Z,37.53
2018-03-20T20:27:17.045Z,33.17
2018-03-20T20:29:44.602Z,49.30
2018-03-20T20:32:12.168Z,71.30
2018-03-20T20:34:39.783Z,67.27
2018-03-20T20:37:07.358Z,70.67
2018-03-20T20:39:35.135Z,68.47
2018-03-20T20:42:02.694Z,69.80
2018-03-20T20:44:30.471Z,65.13
2018-03-20T20:46:58.039Z,62.93
2018-03-20T20:49:25.652Z,62.47
2018-03-20T20:51:53.454Z,67.47
2018-03-20T20:54:21.244Z,66.30
2018-03-20T20:56:48.814Z,63.73
2018-03-20T20:59:16.378Z,62.57
2018-03-20T21:01:43.974Z,78.87
2018-03-20T21:04:11.542Z,83.43
2018-03-20T21:06:39.130Z,71.13
2018-03-20T21:09:06.951Z,70.97
2018-03-20T21:11:34.541Z,55.77
2018-03-20T21:14:02.101Z,62.07
2018-03-20T21:16:29.734Z,55.43
2018-03-20T21:18:57.523Z,55.23
2018-03-20T21:21:25.341Z,95.73
2018-03-20T21:23:52.960Z,109.03
2018-03-20T21:26:20.777Z,76.20
2018-03-20T21:28:48.466Z,60.37
2018-03-20T21:31:16.053Z,62.37
2018-03-20T21:33:43.618Z,97.07
2018-03-20T21:36:11.314Z,97.53
2018-03-20T21:38:39.168Z,63.80
2018-03-20T21:41:06.766Z,52.63
2018-03-20T21:43:34.507Z,57.07
2018-03-20T21:46:02.078Z,156.80
2018-03-20T21:48:29.755Z,86.80
2018-03-20T21:50:57.471Z,81.97
2018-03-20T21:53:25.066Z,70.57
2018-03-20T21:55:52.938Z,70.87
2018-03-20T21:58:20.691Z,72.93
2018-03-20T22:00:48.280Z,65.63
2018-03-20T22:03:15.878Z,64.00
2018-03-20T22:05:43.443Z,61.10
2018-03-20T22:08:11.177Z,60.63
2018-03-20T22:10:38.753Z,81.13
2018-03-20T22:13:06.622Z,144.30
2018-03-20T22:15:34.230Z,132.00
2018-03-20T22:18:01.850Z,72.33
2018-03-20T22:20:29.434Z,82.13
2018-03-20T22:22:56.997Z,59.10
2018-03-20T22:25:24.578Z,63.00
2018-03-20T22:27:52.169Z,54.93
2018-03-20T22:30:19.826Z,70.53
2018-03-20T22:32:47.543Z,214.57
2018-03-20T22:35:15.390Z,106.67
2018-03-20T22:37:42.958Z,83.50
2018-03-20T22:40:10.599Z,62.97
2018-03-20T22:42:38.439Z,48.77
2018-03-20T22:45:06.284Z,50.10
2018-03-20T22:47:34.074Z,49.43
2018-03-20T22:50:01.893Z,260.67
2018-03-20T22:52:29.519Z,86.37
2018-03-20T22:54:57.114Z,53.77
2018-03-20T22:57:24.675Z,51.57
2018-03-20T22:59:52.464Z,49.87
2018-03-20T23:02:20.046Z,49.20
2018-03-20T23:04:47.622Z,280.60
2018-03-20T23:07:15.198Z,104.13
2018-03-20T23:09:42.928Z,80.83
2018-03-20T23:12:10.518Z,93.97
2018-03-20T23:14:38.081Z,174.40
2018-03-20T23:17:05.685Z,180.43
2018-03-20T23:19:33.299Z,196.30
2018-03-20T23:22:01.126Z,325.80
2018-03-20T23:24:28.723Z,52.43
2018-03-20T23:26:56.342Z,46.10
2018-03-20T23:29:23.931Z,44.60
2018-03-20T23:31:51.580Z,43.50
2018-03-20T23:34:19.154Z,45.30
2018-03-20T23:36:46.982Z,55.23
2018-03-20T23:39:14.557Z,80.37
2018-03-20T23:41:42.130Z,51.57
2018-03-20T23:44:09.699Z,44.80
2018-03-20T23:46:37.274Z,42.50
2018-03-20T23:49:05.015Z,40.50
2018-03-20T23:51:32.588Z,87.97
2018-03-20T23:54:00.321Z,56.90
2018-03-20T23:56:28.077Z,51.73
2018-03-20T23:58:55.635Z,52.57
